createdAt,value
2024-04-04T00:00:15.000Z,46.34408602150579
2024-04-04T00:01:17.000Z,42.36559139784981
2024-04-04T00:02:19.000Z,44.19354838709715
2024-04-04T00:03:21.000Z,43.0107526881724
2024-04-04T00:04:23.000Z,48.602150537634856
2024-04-04T00:05:25.000Z,46.34408602150579
2024-04-04T00:06:27.000Z,45.6989247311832
2024-04-04T00:07:29.000Z,49.677419354839174
2024-04-04T00:08:32.000Z,52.795698924731695
2024-04-04T00:09:34.000Z,49.46236559139831
2024-04-04T00:10:36.000Z,49.784946236559605
2024-04-04T00:11:38.000Z,44.62365591397888
2024-04-04T00:12:40.000Z,44.08602150537672
2024-04-04T00:13:42.000Z,43.54838709677456
2024-04-04T00:14:44.000Z,47.63440860215097
2024-04-04T00:15:47.000Z,44.62365591397888
2024-04-04T00:16:49.000Z,46.129032258064925
2024-04-04T00:17:51.000Z,44.408602150538016
2024-04-04T00:18:53.000Z,45.26881720430147
2024-04-04T00:19:55.000Z,43.87096774193586
2024-04-04T00:20:57.000Z,49.56989247311874
2024-04-04T00:21:59.000Z,43.97849462365629
2024-04-04T00:23:01.000Z,44.946236559140175
2024-04-04T00:24:04.000Z,44.73118279569931
2024-04-04T00:25:06.000Z,43.763440860215425
2024-04-04T00:26:08.000Z,44.19354838709715
2024-04-04T00:27:10.000Z,44.946236559140175
2024-04-04T00:28:12.000Z,44.73118279569931
2024-04-04T00:29:14.000Z,44.83870967741974
2024-04-04T00:30:16.000Z,43.97849462365629
2024-04-04T00:31:19.000Z,46.45161290322622
2024-04-04T00:32:21.000Z,44.19354838709715
2024-04-04T00:33:23.000Z,46.774193548387515
2024-04-04T00:34:25.000Z,43.118279569892835
2024-04-04T00:35:27.000Z,43.763440860215425
2024-04-04T00:36:29.000Z,46.129032258064925
2024-04-04T00:37:31.000Z,44.73118279569931
2024-04-04T00:38:34.000Z,45.05376344086061
2024-04-04T00:39:36.000Z,43.118279569892835
2024-04-04T00:40:38.000Z,43.225806451613266
2024-04-04T00:41:40.000Z,45.3763440860219
2024-04-04T00:42:42.000Z,43.44086021505413
2024-04-04T00:43:44.000Z,43.54838709677456
2024-04-04T00:44:46.000Z,43.44086021505413
2024-04-04T00:45:49.000Z,43.54838709677456
2024-04-04T00:46:51.000Z,45.91397849462406
2024-04-04T00:47:53.000Z,43.225806451613266
2024-04-04T00:48:55.000Z,43.44086021505413
2024-04-04T00:49:57.000Z,47.7419354838714
2024-04-04T00:50:59.000Z,46.98924731182838
2024-04-04T00:52:01.000Z,43.0107526881724
2024-04-04T00:53:04.000Z,43.763440860215425
2024-04-04T00:54:06.000Z,42.68817204301111
2024-04-04T00:55:08.000Z,45.26881720430147
2024-04-04T00:56:10.000Z,46.236559139785356
2024-04-04T00:57:12.000Z,44.408602150538016
2024-04-04T00:58:14.000Z,42.90322580645197
2024-04-04T00:59:16.000Z,44.08602150537672
2024-04-04T01:00:18.000Z,43.118279569892835
2024-04-04T01:01:21.000Z,46.34408602150579
2024-04-04T01:02:23.000Z,45.26881720430147
2024-04-04T01:03:25.000Z,47.84946236559183
2024-04-04T01:04:27.000Z,45.483870967742334
2024-04-04T01:05:29.000Z,42.79569892473154
2024-04-04T01:06:31.000Z,44.946236559140175
2024-04-04T01:07:33.000Z,42.90322580645197
2024-04-04T01:08:35.000Z,44.51612903225845
2024-04-04T01:09:38.000Z,43.0107526881724
2024-04-04T01:10:40.000Z,44.408602150538016
2024-04-04T01:11:42.000Z,43.763440860215425
2024-04-04T01:12:44.000Z,43.44086021505413
2024-04-04T01:13:46.000Z,43.0107526881724
2024-04-04T01:14:48.000Z,43.0107526881724
2024-04-04T01:15:50.000Z,43.3333333333337
2024-04-04T01:16:53.000Z,43.65591397849499
2024-04-04T01:17:55.000Z,42.90322580645197
2024-04-04T01:18:57.000Z,42.79569892473154
2024-04-04T01:19:59.000Z,46.129032258064925
2024-04-04T01:21:01.000Z,43.225806451613266
2024-04-04T01:22:03.000Z,42.68817204301111
2024-04-04T01:23:05.000Z,42.68817204301111
2024-04-04T01:24:08.000Z,43.118279569892835
2024-04-04T01:25:10.000Z,43.97849462365629
2024-04-04T01:26:12.000Z,42.79569892473154
2024-04-04T01:27:14.000Z,42.580645161290676
2024-04-04T01:28:16.000Z,42.25806451612938
2024-04-04T01:29:18.000Z,43.3333333333337
2024-04-04T01:30:20.000Z,43.3333333333337
2024-04-04T01:31:22.000Z,43.65591397849499
2024-04-04T01:32:25.000Z,42.473118279570244
2024-04-04T01:33:27.000Z,42.36559139784981
2024-04-04T01:34:29.000Z,44.408602150538016
2024-04-04T01:35:31.000Z,43.225806451613266
2024-04-04T01:36:33.000Z,43.225806451613266
2024-04-04T01:37:35.000Z,44.73118279569931
2024-04-04T01:38:37.000Z,45.591397849462766
2024-04-04T01:39:39.000Z,42.90322580645197
2024-04-04T01:40:42.000Z,42.36559139784981
2024-04-04T01:41:44.000Z,43.0107526881724
2024-04-04T01:42:46.000Z,42.473118279570244
2024-04-04T01:43:48.000Z,43.0107526881724
2024-04-04T01:44:50.000Z,42.68817204301111
2024-04-04T01:45:52.000Z,42.68817204301111
2024-04-04T01:46:54.000Z,43.54838709677456
2024-04-04T01:47:57.000Z,42.25806451612938
2024-04-04T01:48:59.000Z,43.0107526881724
2024-04-04T01:50:01.000Z,42.15053763440895
2024-04-04T01:51:03.000Z,43.0107526881724
2024-04-04T01:52:05.000Z,43.118279569892835
2024-04-04T01:53:07.000Z,42.79569892473154
2024-04-04T01:54:09.000Z,42.580645161290676
2024-04-04T01:55:12.000Z,44.62365591397888
2024-04-04T01:56:14.000Z,42.79569892473154
2024-04-04T01:57:16.000Z,42.473118279570244
2024-04-04T01:58:18.000Z,44.62365591397888
2024-04-04T01:59:20.000Z,42.90322580645197
2024-04-04T02:00:22.000Z,42.90322580645197
2024-04-04T02:01:24.000Z,42.68817204301111
2024-04-04T02:02:26.000Z,44.51612903225845
2024-04-04T02:03:29.000Z,42.79569892473154
2024-04-04T02:04:31.000Z,44.62365591397888
2024-04-04T02:05:33.000Z,43.0107526881724
2024-04-04T02:06:35.000Z,44.62365591397888
2024-04-04T02:07:37.000Z,51.39784946236608
2024-04-04T02:08:39.000Z,43.54838709677456
2024-04-04T02:09:41.000Z,42.36559139784981
2024-04-04T02:10:44.000Z,44.19354838709715
2024-04-04T02:11:46.000Z,42.473118279570244
2024-04-04T02:12:48.000Z,43.763440860215425
2024-04-04T02:13:50.000Z,43.65591397849499
2024-04-04T02:14:52.000Z,43.44086021505413
2024-04-04T02:15:54.000Z,42.580645161290676
2024-04-04T02:16:56.000Z,43.118279569892835
2024-04-04T02:17:58.000Z,42.36559139784981
2024-04-04T02:19:01.000Z,42.68817204301111
2024-04-04T02:20:03.000Z,43.3333333333337
2024-04-04T02:21:05.000Z,42.68817204301111
2024-04-04T02:22:07.000Z,44.62365591397888
2024-04-04T02:23:09.000Z,42.473118279570244
2024-04-04T02:24:11.000Z,42.36559139784981
2024-04-04T02:25:13.000Z,43.0107526881724
2024-04-04T02:26:15.000Z,49.03225806451658
2024-04-04T02:27:18.000Z,43.0107526881724
2024-04-04T02:28:20.000Z,45.26881720430147
2024-04-04T02:29:22.000Z,42.15053763440895
2024-04-04T02:30:24.000Z,44.08602150537672
2024-04-04T02:31:26.000Z,42.36559139784981
2024-04-04T02:32:28.000Z,42.25806451612938
2024-04-04T02:33:30.000Z,42.580645161290676
2024-04-04T02:34:33.000Z,43.225806451613266
2024-04-04T02:35:35.000Z,42.68817204301111
2024-04-04T02:36:37.000Z,43.763440860215425
2024-04-04T02:37:39.000Z,43.65591397849499
2024-04-04T02:38:41.000Z,42.473118279570244
2024-04-04T02:39:43.000Z,43.54838709677456
2024-04-04T02:40:45.000Z,43.118279569892835
2024-04-04T02:41:48.000Z,43.0107526881724
2024-04-04T02:42:50.000Z,42.90322580645197
2024-04-04T02:43:52.000Z,42.36559139784981
2024-04-04T02:44:54.000Z,43.225806451613266
2024-04-04T02:45:56.000Z,42.79569892473154
2024-04-04T02:46:58.000Z,43.54838709677456
2024-04-04T02:48:00.000Z,42.25806451612938
2024-04-04T02:49:02.000Z,43.87096774193586
2024-04-04T02:50:05.000Z,51.82795698924781
2024-04-04T02:51:07.000Z,42.68817204301111
2024-04-04T02:52:09.000Z,44.83870967741974
2024-04-04T02:53:11.000Z,49.46236559139831
2024-04-04T02:54:13.000Z,44.946236559140175
2024-04-04T02:55:15.000Z,42.15053763440895
2024-04-04T02:56:17.000Z,42.04301075268852
2024-04-04T02:57:19.000Z,42.68817204301111
2024-04-04T02:58:22.000Z,43.65591397849499
2024-04-04T02:59:24.000Z,43.97849462365629
2024-04-04T03:00:26.000Z,46.34408602150579
2024-04-04T03:01:28.000Z,44.08602150537672
2024-04-04T03:02:30.000Z,43.0107526881724
2024-04-04T03:03:32.000Z,45.591397849462766
2024-04-04T03:04:34.000Z,43.763440860215425
2024-04-04T03:05:36.000Z,43.118279569892835
2024-04-04T03:06:38.000Z,44.408602150538016
2024-04-04T03:07:41.000Z,43.118279569892835
2024-04-04T03:08:43.000Z,42.25806451612938
2024-04-04T03:09:45.000Z,43.65591397849499
2024-04-04T03:10:47.000Z,46.02150537634449
2024-04-04T03:11:49.000Z,43.87096774193586
2024-04-04T03:12:51.000Z,43.97849462365629
2024-04-04T03:13:53.000Z,44.51612903225845
2024-04-04T03:14:56.000Z,43.3333333333337
2024-04-04T03:15:58.000Z,44.83870967741974
2024-04-04T03:17:00.000Z,43.763440860215425
2024-04-04T03:18:02.000Z,45.483870967742334
2024-04-04T03:19:04.000Z,44.08602150537672
2024-04-04T03:20:06.000Z,47.956989247312265
2024-04-04T03:21:08.000Z,43.44086021505413
2024-04-04T03:22:10.000Z,53.01075268817256
2024-04-04T03:23:12.000Z,46.98924731182838
2024-04-04T03:24:15.000Z,44.83870967741974
2024-04-04T03:25:17.000Z,52.688172043011264
2024-04-04T03:26:19.000Z,44.946236559140175
2024-04-04T03:27:21.000Z,47.7419354838714
2024-04-04T03:28:23.000Z,51.18279569892522
2024-04-04T03:29:25.000Z,42.36559139784981
2024-04-04T03:30:27.000Z,45.6989247311832
2024-04-04T03:31:29.000Z,42.90322580645197
2024-04-04T03:32:32.000Z,45.591397849462766
2024-04-04T03:33:34.000Z,49.247311827957446
2024-04-04T03:34:36.000Z,50.00000000000047
2024-04-04T03:35:38.000Z,44.73118279569931
2024-04-04T03:36:40.000Z,48.494623655914424
2024-04-04T03:37:42.000Z,50.1075268817209
2024-04-04T03:38:44.000Z,45.591397849462766
2024-04-04T03:39:46.000Z,58.172043010753285
2024-04-04T03:40:49.000Z,46.55913978494665
2024-04-04T03:41:51.000Z,46.98924731182838
2024-04-04T03:42:53.000Z,50.64516129032306
2024-04-04T03:43:55.000Z,47.7419354838714
2024-04-04T03:44:57.000Z,48.70967741935529
2024-04-04T03:45:59.000Z,49.139784946237015
2024-04-04T03:47:01.000Z,49.03225806451658
2024-04-04T03:48:04.000Z,50.53763440860263
2024-04-04T03:49:06.000Z,48.494623655914424
2024-04-04T03:50:08.000Z,54.08602150537688
2024-04-04T03:51:10.000Z,54.94623655914033
2024-04-04T03:52:12.000Z,51.29032258064565
2024-04-04T03:53:14.000Z,50.64516129032306
2024-04-04T03:54:16.000Z,53.978494623656445
2024-04-04T03:55:18.000Z,50.322580645161764
2024-04-04T03:56:21.000Z,53.440860215054286
2024-04-04T03:57:23.000Z,50.64516129032306
2024-04-04T03:58:25.000Z,54.73118279569947
2024-04-04T03:59:27.000Z,51.612903225806946
2024-04-04T04:00:29.000Z,53.01075268817256
2024-04-04T04:01:31.000Z,55.161290322581195
2024-04-04T04:02:33.000Z,55.806451612903786
2024-04-04T04:03:35.000Z,55.161290322581195
2024-04-04T04:04:38.000Z,50.53763440860263
2024-04-04T04:05:40.000Z,54.73118279569947
2024-04-04T04:06:42.000Z,54.19354838709731
2024-04-04T04:07:44.000Z,55.37634408602206
2024-04-04T04:08:46.000Z,57.74193548387156
2024-04-04T04:09:48.000Z,58.60215053763501
2024-04-04T04:10:50.000Z,57.74193548387156
2024-04-04T04:11:52.000Z,52.688172043011264
2024-04-04T04:12:55.000Z,53.333333333333854
2024-04-04T04:13:57.000Z,58.92473118279631
2024-04-04T04:14:59.000Z,48.0645161290327
2024-04-04T04:16:01.000Z,51.72043010752738
2024-04-04T04:17:03.000Z,48.602150537634856
2024-04-04T04:18:05.000Z,51.612903225806946
2024-04-04T04:19:07.000Z,53.11827956989299
2024-04-04T04:20:10.000Z,50.430107526882196
2024-04-04T04:21:12.000Z,53.11827956989299
2024-04-04T04:22:14.000Z,54.623655913979036
2024-04-04T04:23:16.000Z,46.88172043010795
2024-04-04T04:24:18.000Z,54.516129032258604
2024-04-04T04:25:20.000Z,59.462365591398466
2024-04-04T04:26:22.000Z,50.967741935484355
2024-04-04T04:27:25.000Z,47.419354838710106
2024-04-04T04:28:27.000Z,51.39784946236608
2024-04-04T04:29:29.000Z,50.322580645161764
2024-04-04T04:30:31.000Z,50.86021505376392
2024-04-04T04:31:33.000Z,55.161290322581195
2024-04-04T04:32:35.000Z,55.48387096774249
2024-04-04T04:33:37.000Z,52.150537634409105
2024-04-04T04:34:39.000Z,55.26881720430163
2024-04-04T04:35:42.000Z,59.2473118279576
2024-04-04T04:36:44.000Z,49.03225806451658
2024-04-04T04:37:46.000Z,51.18279569892522
2024-04-04T04:38:48.000Z,49.03225806451658
2024-04-04T04:39:50.000Z,48.17204301075313
2024-04-04T04:40:52.000Z,47.63440860215097
2024-04-04T04:41:54.000Z,57.526881720430694
2024-04-04T04:42:56.000Z,47.09677419354881
2024-04-04T04:43:59.000Z,46.45161290322622
2024-04-04T04:45:01.000Z,46.02150537634449
2024-04-04T04:46:03.000Z,49.139784946237015
2024-04-04T04:47:05.000Z,51.93548387096824
2024-04-04T04:48:07.000Z,47.52688172043054
2024-04-04T04:49:09.000Z,49.03225806451658
2024-04-04T04:50:11.000Z,45.80645161290363
2024-04-04T04:51:14.000Z,48.70967741935529
2024-04-04T04:52:16.000Z,45.05376344086061
2024-04-04T04:53:18.000Z,47.419354838710106
2024-04-04T04:54:20.000Z,49.784946236559605
2024-04-04T04:55:22.000Z,49.35483870967788
2024-04-04T04:56:24.000Z,50.53763440860263
2024-04-04T04:57:26.000Z,46.55913978494665
2024-04-04T04:58:29.000Z,48.70967741935529
2024-04-04T04:59:31.000Z,46.45161290322622
2024-04-04T05:00:33.000Z,46.129032258064925
2024-04-04T05:01:35.000Z,45.16129032258104
2024-04-04T05:02:37.000Z,46.66666666666708
2024-04-04T05:03:39.000Z,48.602150537634856
2024-04-04T05:04:41.000Z,47.311827956989674
2024-04-04T05:05:43.000Z,50.64516129032306
2024-04-04T05:06:46.000Z,53.65591397849515
2024-04-04T05:07:48.000Z,52.25806451612954
2024-04-04T05:08:50.000Z,53.440860215054286
2024-04-04T05:09:52.000Z,47.956989247312265
2024-04-04T05:10:54.000Z,48.27956989247356
2024-04-04T05:11:56.000Z,53.440860215054286
2024-04-04T05:12:58.000Z,45.6989247311832
2024-04-04T05:14:01.000Z,47.956989247312265
2024-04-04T05:15:03.000Z,50.1075268817209
2024-04-04T05:16:05.000Z,47.20430107526924
2024-04-04T05:17:07.000Z,47.311827956989674
2024-04-04T05:18:09.000Z,47.09677419354881
2024-04-04T05:19:11.000Z,49.35483870967788
2024-04-04T05:20:13.000Z,52.36559139784997
2024-04-04T05:21:15.000Z,48.38709677419399
2024-04-04T05:22:17.000Z,48.602150537634856
2024-04-04T05:23:20.000Z,46.774193548387515
2024-04-04T05:24:22.000Z,48.0645161290327
2024-04-04T05:25:24.000Z,46.88172043010795
2024-04-04T05:26:26.000Z,47.63440860215097
2024-04-04T05:27:28.000Z,47.20430107526924
2024-04-04T05:28:30.000Z,50.75268817204349
2024-04-04T05:29:32.000Z,51.82795698924781
2024-04-04T05:30:35.000Z,53.54838709677472
2024-04-04T05:31:37.000Z,54.30107526881774
2024-04-04T05:32:39.000Z,53.76344086021558
2024-04-04T05:33:41.000Z,50.1075268817209
2024-04-04T05:34:43.000Z,51.29032258064565
2024-04-04T05:35:45.000Z,53.87096774193601
2024-04-04T05:36:47.000Z,53.01075268817256
2024-04-04T05:37:50.000Z,50.322580645161764
2024-04-04T05:38:52.000Z,50.21505376344133
2024-04-04T05:39:54.000Z,48.17204301075313
2024-04-04T05:40:56.000Z,46.45161290322622
2024-04-04T05:41:58.000Z,44.62365591397888
2024-04-04T05:43:00.000Z,46.45161290322622
2024-04-04T05:44:02.000Z,47.956989247312265
2024-04-04T05:45:05.000Z,47.7419354838714
2024-04-04T05:46:07.000Z,49.56989247311874
2024-04-04T05:47:09.000Z,50.64516129032306
2024-04-04T05:48:11.000Z,48.494623655914424
2024-04-04T05:49:13.000Z,50.430107526882196
2024-04-04T05:50:15.000Z,46.02150537634449
2024-04-04T05:51:17.000Z,49.784946236559605
2024-04-04T05:52:19.000Z,49.89247311828004
2024-04-04T05:53:22.000Z,46.66666666666708
2024-04-04T05:54:24.000Z,46.66666666666708
2024-04-04T05:55:26.000Z,48.602150537634856
2024-04-04T05:56:28.000Z,51.72043010752738
2024-04-04T05:57:30.000Z,49.35483870967788
2024-04-04T05:58:32.000Z,52.25806451612954
2024-04-04T05:59:34.000Z,47.20430107526924
2024-04-04T06:00:37.000Z,51.505376344086514
2024-04-04T06:01:39.000Z,53.76344086021558
2024-04-04T06:02:41.000Z,47.956989247312265
2024-04-04T06:03:43.000Z,51.505376344086514
2024-04-04T06:04:45.000Z,50.430107526882196
2024-04-04T06:05:47.000Z,56.8817204301081
2024-04-04T06:06:49.000Z,48.92473118279615
2024-04-04T06:07:51.000Z,54.8387096774199
2024-04-04T06:08:54.000Z,52.688172043011264
2024-04-04T06:09:56.000Z,53.978494623656445
2024-04-04T06:10:58.000Z,49.139784946237015
2024-04-04T06:12:00.000Z,50.53763440860263
2024-04-04T06:13:02.000Z,46.45161290322622
2024-04-04T06:14:04.000Z,47.52688172043054
2024-04-04T06:15:06.000Z,46.129032258064925
2024-04-04T06:16:09.000Z,51.505376344086514
2024-04-04T06:17:11.000Z,48.17204301075313
2024-04-04T06:18:13.000Z,51.82795698924781
2024-04-04T06:19:15.000Z,49.03225806451658
2024-04-04T06:20:17.000Z,53.978494623656445
2024-04-04T06:21:19.000Z,45.91397849462406
2024-04-04T06:22:21.000Z,51.07526881720479
2024-04-04T06:23:23.000Z,47.52688172043054
2024-04-04T06:24:25.000Z,46.55913978494665
2024-04-04T06:25:28.000Z,46.88172043010795
2024-04-04T06:26:30.000Z,53.76344086021558
2024-04-04T06:27:32.000Z,47.20430107526924
2024-04-04T06:28:34.000Z,49.46236559139831
2024-04-04T06:29:36.000Z,52.150537634409105
2024-04-04T06:30:38.000Z,50.430107526882196
2024-04-04T06:31:40.000Z,55.59139784946292
2024-04-04T06:32:43.000Z,50.430107526882196
2024-04-04T06:33:45.000Z,50.64516129032306
2024-04-04T06:34:47.000Z,48.81720430107572
2024-04-04T06:35:49.000Z,49.247311827957446
2024-04-04T06:36:51.000Z,47.311827956989674
2024-04-04T06:37:53.000Z,47.09677419354881
2024-04-04T06:38:55.000Z,47.84946236559183
2024-04-04T06:39:57.000Z,51.39784946236608
2024-04-04T06:41:00.000Z,50.53763440860263
2024-04-04T06:42:02.000Z,45.6989247311832
2024-04-04T06:43:04.000Z,47.956989247312265
2024-04-04T06:44:06.000Z,47.20430107526924
2024-04-04T06:45:08.000Z,46.98924731182838
2024-04-04T06:46:10.000Z,57.2043010752694
2024-04-04T06:47:12.000Z,51.39784946236608
2024-04-04T06:48:15.000Z,47.09677419354881
2024-04-04T06:49:17.000Z,49.677419354839174
2024-04-04T06:50:19.000Z,50.75268817204349
2024-04-04T06:51:21.000Z,51.29032258064565
2024-04-04T06:52:23.000Z,47.63440860215097
2024-04-04T06:53:25.000Z,46.45161290322622
2024-04-04T06:54:27.000Z,46.34408602150579
2024-04-04T06:55:30.000Z,46.34408602150579
2024-04-04T06:56:32.000Z,52.4731182795704
2024-04-04T06:57:34.000Z,50.00000000000047
2024-04-04T06:58:36.000Z,48.70967741935529
2024-04-04T06:59:38.000Z,47.84946236559183
2024-04-04T07:00:40.000Z,50.21505376344133
2024-04-04T07:01:42.000Z,50.967741935484355
2024-04-04T07:02:45.000Z,50.430107526882196
2024-04-04T07:03:47.000Z,51.07526881720479
2024-04-04T07:04:49.000Z,49.784946236559605
2024-04-04T07:05:51.000Z,50.86021505376392
2024-04-04T07:06:53.000Z,50.21505376344133
2024-04-04T07:07:55.000Z,48.38709677419399
2024-04-04T07:08:57.000Z,48.602150537634856
2024-04-04T07:09:59.000Z,54.623655913979036
2024-04-04T07:11:02.000Z,49.46236559139831
2024-04-04T07:12:04.000Z,50.430107526882196
2024-04-04T07:13:06.000Z,48.38709677419399
2024-04-04T07:14:08.000Z,49.784946236559605
2024-04-04T07:15:10.000Z,47.419354838710106
2024-04-04T07:16:12.000Z,47.20430107526924
2024-04-04T07:17:14.000Z,52.25806451612954
2024-04-04T07:18:16.000Z,49.56989247311874
2024-04-04T07:19:18.000Z,48.17204301075313
2024-04-04T07:20:21.000Z,56.23655913978551
2024-04-04T07:21:23.000Z,52.25806451612954
2024-04-04T07:22:25.000Z,49.677419354839174
2024-04-04T07:23:27.000Z,50.53763440860263
2024-04-04T07:24:29.000Z,55.05376344086076
2024-04-04T07:25:31.000Z,55.161290322581195
2024-04-04T07:26:33.000Z,49.56989247311874
2024-04-04T07:27:35.000Z,57.41935483871026
2024-04-04T07:28:38.000Z,51.18279569892522
2024-04-04T07:29:40.000Z,53.01075268817256
2024-04-04T07:30:42.000Z,47.63440860215097
2024-04-04T07:31:44.000Z,48.17204301075313
2024-04-04T07:32:46.000Z,51.07526881720479
2024-04-04T07:33:48.000Z,48.92473118279615
2024-04-04T07:34:50.000Z,50.322580645161764
2024-04-04T07:35:52.000Z,47.84946236559183
2024-04-04T07:36:55.000Z,52.4731182795704
2024-04-04T07:37:57.000Z,49.677419354839174
2024-04-04T07:38:59.000Z,48.602150537634856
2024-04-04T07:40:01.000Z,53.11827956989299
2024-04-04T07:41:03.000Z,48.38709677419399
2024-04-04T07:42:05.000Z,55.161290322581195
2024-04-04T07:43:07.000Z,47.956989247312265
2024-04-04T07:44:09.000Z,49.139784946237015
2024-04-04T07:45:12.000Z,47.63440860215097
2024-04-04T07:46:14.000Z,58.172043010753285
2024-04-04T07:47:16.000Z,53.440860215054286
2024-04-04T07:48:18.000Z,49.89247311828004
2024-04-04T07:49:20.000Z,48.38709677419399
2024-04-04T07:50:22.000Z,52.04301075268867
2024-04-04T07:51:24.000Z,48.494623655914424
2024-04-04T07:52:26.000Z,46.98924731182838
2024-04-04T07:53:29.000Z,51.505376344086514
2024-04-04T07:54:31.000Z,52.150537634409105
2024-04-04T07:55:33.000Z,53.22580645161342
2024-04-04T07:56:35.000Z,49.784946236559605
2024-04-04T07:57:37.000Z,49.139784946237015
2024-04-04T07:58:39.000Z,50.86021505376392
2024-04-04T07:59:41.000Z,48.17204301075313
2024-04-04T08:00:44.000Z,51.505376344086514
2024-04-04T08:01:46.000Z,49.139784946237015
2024-04-04T08:02:48.000Z,48.70967741935529
2024-04-04T08:03:50.000Z,49.56989247311874
2024-04-04T08:04:52.000Z,46.98924731182838
2024-04-04T08:05:54.000Z,47.956989247312265
2024-04-04T08:06:56.000Z,53.333333333333854
2024-04-04T08:07:59.000Z,50.64516129032306
2024-04-04T08:09:01.000Z,48.17204301075313
2024-04-04T08:10:03.000Z,48.92473118279615
2024-04-04T08:11:05.000Z,48.92473118279615
2024-04-04T08:12:07.000Z,49.139784946237015
2024-04-04T08:13:09.000Z,49.784946236559605
2024-04-04T08:14:11.000Z,48.602150537634856
2024-04-04T08:15:13.000Z,56.02150537634465
2024-04-04T08:16:16.000Z,54.623655913979036
2024-04-04T08:17:18.000Z,54.19354838709731
2024-04-04T08:18:20.000Z,49.89247311828004
2024-04-04T08:19:22.000Z,48.81720430107572
2024-04-04T08:20:24.000Z,52.36559139784997
2024-04-04T08:21:26.000Z,53.54838709677472
2024-04-04T08:22:28.000Z,52.90322580645213
2024-04-04T08:23:31.000Z,48.81720430107572
2024-04-04T08:24:33.000Z,51.505376344086514
2024-04-04T08:25:35.000Z,46.66666666666708
2024-04-04T08:26:37.000Z,48.70967741935529
2024-04-04T08:27:39.000Z,47.7419354838714
2024-04-04T08:28:41.000Z,49.784946236559605
2024-04-04T08:29:43.000Z,50.967741935484355
2024-04-04T08:30:45.000Z,54.40860215053817
2024-04-04T08:31:48.000Z,56.344086021505944
2024-04-04T08:32:50.000Z,54.08602150537688
2024-04-04T08:33:52.000Z,50.00000000000047
2024-04-04T08:34:54.000Z,50.00000000000047
2024-04-04T08:35:56.000Z,51.07526881720479
2024-04-04T08:36:58.000Z,49.784946236559605
2024-04-04T08:38:00.000Z,49.784946236559605
2024-04-04T08:39:02.000Z,46.774193548387515
2024-04-04T08:40:05.000Z,51.93548387096824
2024-04-04T08:41:07.000Z,49.35483870967788
2024-04-04T08:42:09.000Z,48.494623655914424
2024-04-04T08:43:11.000Z,51.07526881720479
2024-04-04T08:44:13.000Z,52.58064516129083
2024-04-04T08:45:15.000Z,47.09677419354881
2024-04-04T08:46:17.000Z,46.98924731182838
2024-04-04T08:47:20.000Z,55.698924731183354
2024-04-04T08:48:22.000Z,47.311827956989674
2024-04-04T08:49:24.000Z,47.63440860215097
2024-04-04T08:50:26.000Z,51.612903225806946
2024-04-04T08:51:28.000Z,50.21505376344133
2024-04-04T08:52:30.000Z,51.39784946236608
2024-04-04T08:53:32.000Z,51.39784946236608
2024-04-04T08:54:34.000Z,53.978494623656445
2024-04-04T08:55:37.000Z,50.75268817204349
2024-04-04T08:56:39.000Z,53.65591397849515
2024-04-04T08:57:41.000Z,49.677419354839174
2024-04-04T08:58:43.000Z,52.688172043011264
2024-04-04T08:59:45.000Z,48.81720430107572
2024-04-04T09:00:47.000Z,48.0645161290327
2024-04-04T09:01:49.000Z,48.602150537634856
2024-04-04T09:02:51.000Z,49.247311827957446
2024-04-04T09:03:54.000Z,48.70967741935529
2024-04-04T09:04:56.000Z,51.39784946236608
2024-04-04T09:05:58.000Z,47.52688172043054
2024-04-04T09:07:00.000Z,51.93548387096824
2024-04-04T09:08:02.000Z,49.784946236559605
2024-04-04T09:09:04.000Z,46.236559139785356
2024-04-04T09:10:06.000Z,54.30107526881774
2024-04-04T09:11:08.000Z,51.93548387096824
2024-04-04T09:12:11.000Z,48.92473118279615
2024-04-04T09:13:13.000Z,51.505376344086514
2024-04-04T09:14:15.000Z,55.37634408602206
2024-04-04T09:15:17.000Z,50.75268817204349
2024-04-04T09:16:19.000Z,52.150537634409105
2024-04-04T09:17:21.000Z,56.02150537634465
2024-04-04T09:18:23.000Z,52.4731182795704
2024-04-04T09:19:25.000Z,47.63440860215097
2024-04-04T09:20:28.000Z,49.784946236559605
2024-04-04T09:21:30.000Z,49.03225806451658
2024-04-04T09:22:32.000Z,47.7419354838714
2024-04-04T09:23:34.000Z,50.00000000000047
2024-04-04T09:24:36.000Z,58.60215053763501
2024-04-04T09:25:38.000Z,58.38709677419415
2024-04-04T09:26:40.000Z,51.93548387096824
2024-04-04T09:27:43.000Z,50.21505376344133
2024-04-04T09:28:45.000Z,47.956989247312265
2024-04-04T09:29:47.000Z,48.17204301075313
2024-04-04T09:30:49.000Z,50.00000000000047
2024-04-04T09:31:51.000Z,52.25806451612954
2024-04-04T09:32:53.000Z,50.53763440860263